Time;durP1;ratioP1;P1;durP2;ratioP2;P2;SDS_P1;SDS_P2;PMS_P1;PMS_P2;Temp;Humidity;BMP_temperature;BMP_pressure;BME280_temperature;BME280_humidity;BME280_pressure;Samples;Min_cycle;Max_cycle;Signal;HPM_P1;HPM_P2
2023/06/17 00:02:05;;;;;;;1.00;1.00;;;;;;;18.37;63.59;95410.13;4330220;32;20344;-65
2023/06/17 00:04:37;;;;;;;1.10;1.10;;;;;;;18.36;63.32;95415.84;4369705;32;20255;-64
2023/06/17 00:07:04;;;;;;;1.23;1.23;;;;;;;18.37;62.81;95412.81;4393011;32;20208;-64
2023/06/17 00:09:31;;;;;;;1.33;1.33;;;;;;;18.46;63.48;95413.47;4372626;32;20204;-64
2023/06/17 00:11:58;;;;;;;0.90;0.90;;;;;;;18.37;63.77;95410.13;4369839;32;20247;-64
2023/06/17 00:14:24;;;;;;;3.37;1.57;;;;;;;18.34;64.75;95408.12;4329057;32;20189;-64
2023/06/17 00:16:50;;;;;;;1.40;1.40;;;;;;;18.30;64.14;95411.81;4360208;32;20179;-65
2023/06/17 00:19:20;;;;;;;1.00;1.00;;;;;;;18.28;64.30;95411.41;4359601;32;20228;-64
2023/06/17 00:21:52;;;;;;;1.57;1.53;;;;;;;18.25;63.81;95410.19;4332454;32;20245;-64
2023/06/17 00:24:23;;;;;;;7.50;2.07;;;;;;;18.13;65.37;95407.50;4375271;32;20189;-65
2023/06/17 00:26:49;;;;;;;1.70;1.50;;;;;;;18.14;64.36;95403.69;4377580;32;20199;-65
2023/06/17 00:29:19;;;;;;;1.70;1.63;;;;;;;18.16;65.60;95401.47;4310421;32;20196;-64
2023/06/17 00:31:47;;;;;;;1.13;1.13;;;;;;;18.23;66.07;95396.31;4338892;32;20245;-64
2023/06/17 00:34:12;;;;;;;0.80;0.80;;;;;;;18.18;65.97;95393.84;4359164;32;20212;-65
2023/06/17 00:36:39;;;;;;;1.17;1.17;;;;;;;18.08;65.52;95397.03;4350408;32;20189;-65
2023/06/17 00:39:06;;;;;;;1.53;1.43;;;;;;;18.24;65.30;95389.81;4361835;32;20300;-64
2023/06/17 00:41:33;;;;;;;2.10;1.97;;;;;;;18.15;65.43;95395.31;4367359;32;20207;-64
2023/06/17 00:43:59;;;;;;;1.47;1.30;;;;;;;18.01;66.30;95383.38;4366854;32;20286;-64
2023/06/17 00:46:40;;;;;;;1.63;1.53;;;;;;;18.12;66.32;95379.09;4334970;32;20235;-64
2023/06/17 00:49:10;;;;;;;1.73;1.63;;;;;;;18.18;65.46;95378.53;4370535;32;20188;-64
2023/06/17 00:51:36;;;;;;;0.97;0.97;;;;;;;18.19;65.93;95384.66;4389130;32;20246;-64
2023/06/17 00:54:28;;;;;;;1.13;1.13;;;;;;;18.16;65.25;95388.03;4280068;32;20275;-64
2023/06/17 00:56:57;;;;;;;1.17;1.17;;;;;;;18.02;65.60;95387.63;4339766;32;20235;-64
2023/06/17 00:59:26;;;;;;;1.00;1.00;;;;;;;17.91;66.17;95379.25;4335846;32;20212;-64
2023/06/17 01:01:56;;;;;;;1.80;1.70;;;;;;;18.04;66.48;95388.84;4340743;32;20215;-64
2023/06/17 01:04:23;;;;;;;1.53;1.43;;;;;;;17.97;66.35;95387.84;4379383;32;20181;-64
2023/06/17 01:07:03;;;;;;;1.50;1.40;;;;;;;17.97;66.29;95385.94;4383465;32;20204;-64
2023/06/17 01:09:54;;;;;;;0.60;0.60;;;;;;;17.96;66.95;95384.38;4342286;32;20272;-64
2023/06/17 01:12:26;;;;;;;1.20;1.20;;;;;;;17.96;66.36;95386.28;4386083;32;20184;-64
2023/06/17 01:14:57;;;;;;;1.73;1.63;;;;;;;17.98;66.63;95392.09;4366212;32;20188;-64
2023/06/17 01:17:26;;;;;;;1.37;1.37;;;;;;;17.93;66.87;95398.47;4350231;32;20235;-64
2023/06/17 01:19:54;;;;;;;1.17;1.17;;;;;;;17.97;66.75;95387.84;4374106;32;20193;-64
2023/06/17 01:22:27;;;;;;;1.13;1.03;;;;;;;18.02;66.87;95391.09;4371790;32;20227;-64
2023/06/17 01:25:02;;;;;;;1.13;1.13;;;;;;;17.69;66.70;95393.91;4332294;32;20235;-64
2023/06/17 01:27:33;;;;;;;0.87;0.87;;;;;;;17.74;67.48;95393.69;4387781;32;20278;-65
2023/06/17 01:30:03;;;;;;;1.50;1.30;;;;;;;17.74;67.38;95388.31;4308956;32;20202;-64
2023/06/17 01:32:34;;;;;;;0.70;0.70;;;;;;;17.66;67.42;95389.25;4349259;32;20183;-64
2023/06/17 01:35:14;;;;;;;1.77;1.67;;;;;;;17.66;67.58;95389.25;4353979;32;20251;-65
2023/06/17 01:38:14;;;;;;;0.83;0.83;;;;;;;17.61;68.39;95384.06;4311888;32;20193;-65
2023/06/17 01:41:24;;;;;;;1.27;1.23;;;;;;;17.65;67.57;95387.69;4345952;32;20224;-65
2023/06/17 01:43:52;;;;;;;1.20;1.20;;;;;;;17.55;68.74;95390.75;4339480;32;20232;-65
2023/06/17 01:46:18;;;;;;;2.50;1.07;;;;;;;17.45;67.89;95397.37;4363946;32;20232;-65
2023/06/17 01:48:48;;;;;;;1.90;1.53;;;;;;;17.48;69.03;95401.25;4344609;32;20192;-65
2023/06/17 01:51:14;;;;;;;1.90;1.80;;;;;;;17.58;68.76;95394.69;4351591;32;20196;-65
2023/06/17 01:53:51;;;;;;;1.30;1.27;;;;;;;17.63;67.83;95399.81;4370871;32;20256;-65
2023/06/17 01:56:18;;;;;;;1.10;1.10;;;;;;;17.59;68.24;95394.34;4358007;32;20247;-65
2023/06/17 01:58:44;;;;;;;1.67;1.57;;;;;;;17.64;68.11;95393.34;4391380;32;20207;-65
2023/06/17 02:01:22;;;;;;;1.17;1.17;;;;;;;17.40;67.97;95394.12;4346779;32;20265;-65
2023/06/17 02:03:52;;;;;;;1.13;1.07;;;;;;;17.54;68.66;95391.88;4301742;32;20303;-65
2023/06/17 02:06:20;;;;;;;1.53;1.43;;;;;;;17.45;69.03;95393.91;4259082;32;20260;-65
2023/06/17 02:08:48;;;;;;;2.23;1.57;;;;;;;17.27;69.25;95401.34;4319179;32;20192;-65
2023/06/17 02:11:33;;;;;;;0.83;0.83;;;;;;;17.23;69.61;95392.44;4368823;32;20199;-65
2023/06/17 02:14:01;;;;;;;1.00;1.00;;;;;;;17.26;70.09;95396.31;4365678;32;20210;-65
2023/06/17 02:16:27;;;;;;;2.00;1.80;;;;;;;17.29;69.71;95388.41;4379951;32;20246;-65
2023/06/17 02:18:54;;;;;;;0.93;0.93;;;;;;;17.20;69.16;95392.31;4380575;32;20237;-65
2023/06/17 02:21:22;;;;;;;1.90;1.80;;;;;;;17.40;70.08;95386.06;4305052;32;20208;-65
2023/06/17 02:23:49;;;;;;;1.53;1.43;;;;;;;17.40;69.05;95383.38;4369187;32;20219;-66
2023/06/17 02:26:17;;;;;;;1.73;1.63;;;;;;;17.26;69.51;95390.97;4332911;32;20193;-65
2023/06/17 02:28:43;;;;;;;2.20;2.00;;;;;;;17.20;69.87;95392.31;4341215;32;20192;-65
2023/06/17 02:31:15;;;;;;;2.60;1.47;;;;;;;17.26;69.86;95374.87;4364751;32;20183;-65
2023/06/17 02:33:40;;;;;;;1.30;1.20;;;;;;;17.18;69.88;95393.44;4352677;32;20227;-65
2023/06/17 02:36:06;;;;;;;1.20;1.20;;;;;;;17.17;70.40;95389.19;4380697;32;20194;-65
2023/06/17 02:38:33;;;;;;;1.07;1.07;;;;;;;17.28;70.10;95384.16;4364816;32;20223;-65
2023/06/17 02:41:04;;;;;;;1.10;1.10;;;;;;;17.44;69.10;95389.66;4347355;32;20298;-65
2023/06/17 02:43:34;;;;;;;1.13;1.13;;;;;;;17.32;69.36;95392.31;4366149;32;20218;-65
2023/06/17 02:45:59;;;;;;;1.33;1.33;;;;;;;17.17;70.03;95394.53;4376049;32;20252;-65
2023/06/17 02:48:27;;;;;;;2.27;2.17;;;;;;;17.17;69.48;95397.22;4373798;32;20196;-65
2023/06/17 02:50:54;;;;;;;1.73;1.63;;;;;;;17.28;69.70;95396.78;4304666;32;20198;-64
2023/06/17 02:53:22;;;;;;;1.33;1.23;;;;;;;17.16;69.77;95392.19;4306703;32;20208;-65
2023/06/17 02:55:49;;;;;;;2.13;2.03;;;;;;;17.16;69.89;95392.97;4332822;32;20302;-65
2023/06/17 02:58:31;;;;;;;0.90;0.90;;;;;;;17.02;70.31;95397.87;4369043;32;20176;-65
2023/06/17 03:00:57;;;;;;;1.37;1.33;;;;;;;17.12;70.15;95397.44;4355238;32;20193;-65
2023/06/17 03:03:35;;;;;;;0.90;0.90;;;;;;;17.21;69.65;95400.03;4367036;32;20196;-64
2023/06/17 03:06:03;;;;;;;1.73;1.63;;;;;;;17.21;69.28;95394.66;4379393;32;20204;-63
2023/06/17 03:08:36;;;;;;;1.13;1.13;;;;;;;17.14;70.14;95400.56;4313591;32;20262;-64
2023/06/17 03:11:03;;;;;;;1.17;1.17;;;;;;;17.25;69.61;95397.47;4323779;32;20185;-64
2023/06/17 03:13:37;;;;;;;0.97;0.97;;;;;;;17.04;70.65;95395.63;4372717;32;20362;-64
2023/06/17 03:16:07;;;;;;;1.17;1.17;;;;;;;16.97;69.47;95398.06;4307379;32;20188;-64
2023/06/17 03:18:36;;;;;;;1.10;1.10;;;;;;;17.20;70.32;95397.69;4321316;32;20203;-64
2023/06/17 03:21:02;;;;;;;1.40;1.40;;;;;;;17.29;70.21;95395.66;4390440;32;20284;-64
2023/06/17 03:23:32;;;;;;;1.17;1.17;;;;;;;17.31;69.74;95398.78;4374345;32;20283;-63
2023/06/17 03:25:57;;;;;;;1.67;1.67;;;;;;;17.08;69.67;95407.25;4381317;32;20272;-63
2023/06/17 03:28:31;;;;;;;1.00;1.00;;;;;;;17.25;70.37;95395.53;4382147;32;20205;-64
2023/06/17 03:31:07;;;;;;;1.50;1.40;;;;;;;16.98;70.08;95396.97;4373812;32;20196;-64
2023/06/17 03:33:36;;;;;;;1.07;1.07;;;;;;;16.86;70.68;95399.59;4388542;32;20183;-64
2023/06/17 03:36:07;;;;;;;1.53;1.43;;;;;;;16.96;70.82;95393.81;4383741;32;20252;-64
2023/06/17 03:38:35;;;;;;;2.93;1.27;;;;;;;16.89;70.57;95390.91;4301542;32;20190;-64
2023/06/17 03:41:02;;;;;;;1.20;1.20;;;;;;;17.24;70.43;95393.22;4316397;32;20328;-64
2023/06/17 03:43:40;;;;;;;0.93;0.93;;;;;;;17.18;70.16;95392.66;4364758;32;20291;-64
2023/06/17 03:46:15;;;;;;;1.77;1.67;;;;;;;17.08;70.04;95396.53;4285746;32;20264;-64
2023/06/17 03:48:42;;;;;;;1.87;1.77;;;;;;;17.17;69.50;95394.53;4348732;32;20210;-64
2023/06/17 03:51:08;;;;;;;1.13;1.13;;;;;;;17.01;70.32;95388.25;4351529;32;20185;-64
2023/06/17 03:53:37;;;;;;;1.20;1.10;;;;;;;17.19;70.03;95391.53;4352330;32;20291;-64
2023/06/17 03:56:03;;;;;;;1.43;1.33;;;;;;;17.07;70.45;95389.59;4291419;32;20332;-64
2023/06/17 03:58:32;;;;;;;10.23;2.00;;;;;;;17.03;69.87;95388.72;4325612;32;20207;-64
2023/06/17 04:01:23;;;;;;;1.70;1.60;;;;;;;17.05;69.50;95396.41;4372667;32;24033;-64
2023/06/17 04:03:51;;;;;;;1.23;1.13;;;;;;;16.96;70.60;95398.41;4371971;32;20179;-64
2023/06/17 04:06:40;;;;;;;1.47;1.47;;;;;;;16.94;70.98;95395.28;4331116;32;20196;-64
2023/06/17 04:09:08;;;;;;;1.17;1.17;;;;;;;17.09;71.21;95406.13;4357365;32;20188;-64
2023/06/17 04:11:33;;;;;;;1.70;1.63;;;;;;;17.01;70.09;95407.03;4340020;32;20195;-64
2023/06/17 04:14:03;;;;;;;3.67;1.77;;;;;;;17.18;70.26;95406.84;4311274;32;20286;-64
2023/06/17 04:16:41;;;;;;;1.23;1.23;;;;;;;17.01;70.44;95408.94;4311887;32;20294;-64
2023/06/17 04:19:09;;;;;;;1.40;1.30;;;;;;;17.10;69.98;95405.03;4335176;32;20212;-64
2023/06/17 04:21:36;;;;;;;1.40;0.83;;;;;;;17.15;69.17;95412.06;4373284;32;20196;-64
2023/06/17 04:24:01;;;;;;;1.63;1.53;;;;;;;17.05;68.94;95407.91;4359857;32;20237;-64
2023/06/17 04:26:30;;;;;;;1.47;1.43;;;;;;;16.97;70.44;95406.13;4359689;32;20276;-64
2023/06/17 04:28:58;;;;;;;1.00;1.00;;;;;;;17.18;69.96;95406.84;4357053;32;20256;-64
2023/06/17 04:31:30;;;;;;;1.23;1.23;;;;;;;17.12;69.63;95402.78;4312488;32;20197;-64
2023/06/17 04:34:05;;;;;;;1.17;1.17;;;;;;;17.20;70.05;95401.12;4350922;32;20192;-64
2023/06/17 04:36:30;;;;;;;0.90;0.90;;;;;;;17.27;69.59;95409.41;4361574;32;20192;-64
2023/06/17 04:38:55;;;;;;;2.03;1.93;;;;;;;17.16;69.45;95403.69;4371473;32;20210;-64
2023/06/17 04:41:21;;;;;;;1.13;1.13;;;;;;;17.00;68.84;95405.47;4307887;32;20282;-64
2023/06/17 04:43:48;;;;;;;0.83;0.83;;;;;;;16.98;69.41;95410.38;4331990;32;20219;-64
2023/06/17 04:46:16;;;;;;;1.67;1.67;;;;;;;16.99;70.59;95406.56;4349503;32;20207;-64
2023/06/17 04:48:43;;;;;;;2.43;0.80;;;;;;;17.12;70.10;95405.47;4391330;32;20210;-64
2023/06/17 04:51:09;;;;;;;1.20;1.20;;;;;;;17.12;70.06;95407.38;4334265;32;20231;-65
2023/06/17 04:53:39;;;;;;;1.10;1.10;;;;;;;16.96;68.98;95404.56;4384718;32;20207;-64
2023/06/17 04:56:21;;;;;;;1.00;1.00;;;;;;;17.06;69.98;95404.09;4403414;32;20249;-64
2023/06/17 04:59:11;;;;;;;1.30;1.30;;;;;;;17.21;70.06;95404.59;4340132;32;20206;-64
2023/06/17 05:01:38;;;;;;;1.73;1.63;;;;;;;17.30;68.27;95408.72;4367777;32;20191;-64
2023/06/17 05:04:05;;;;;;;1.00;1.00;;;;;;;17.53;68.70;95401.03;4305322;32;20214;-64
2023/06/17 05:06:31;;;;;;;1.03;1.03;;;;;;;17.42;69.00;95407.97;4358897;32;20346;-64
2023/06/17 05:09:03;;;;;;;0.90;0.90;;;;;;;17.48;68.04;95407.41;4378362;32;20192;-64
2023/06/17 05:11:29;;;;;;;1.00;1.00;;;;;;;17.26;67.71;95412.41;4344992;32;20314;-64
2023/06/17 05:13:57;;;;;;;2.40;2.20;;;;;;;17.37;68.91;95410.88;4343956;32;20207;-64
2023/06/17 05:16:24;;;;;;;1.03;1.03;;;;;;;17.39;68.57;95403.28;4385059;32;20200;-64
2023/06/17 05:18:57;;;;;;;1.57;1.47;;;;;;;17.51;68.39;95404.06;4371010;32;20200;-64
2023/06/17 05:21:22;;;;;;;1.17;1.17;;;;;;;17.46;67.62;95403.50;4377059;32;20211;-65
2023/06/17 05:23:50;;;;;;;1.93;1.83;;;;;;;17.46;68.18;95403.50;4364333;32;20238;-65
2023/06/17 05:26:17;;;;;;;1.43;1.43;;;;;;;17.67;68.71;95412.25;4343027;32;20192;-65
2023/06/17 05:28:46;;;;;;;1.40;1.30;;;;;;;17.54;67.40;95413.34;4352553;32;20197;-65
2023/06/17 05:31:13;;;;;;;1.63;1.63;;;;;;;17.51;67.58;95408.62;4384700;32;20255;-65
2023/06/17 05:33:39;;;;;;;2.30;1.27;;;;;;;17.70;68.51;95416.94;4389734;32;20184;-65
2023/06/17 05:36:05;;;;;;;1.20;1.20;;;;;;;17.86;68.39;95414.38;4370670;32;20204;-65
2023/06/17 05:38:32;;;;;;;5.40;1.90;;;;;;;17.86;67.66;95414.38;4360517;32;20183;-65
2023/06/17 05:41:01;;;;;;;8.13;1.87;;;;;;;17.91;68.02;95416.03;4373144;32;20293;-65
2023/06/17 05:43:30;;;;;;;3.27;1.93;;;;;;;17.98;67.55;95410.91;4391862;32;20176;-64
2023/06/17 05:46:11;;;;;;;1.57;1.47;;;;;;;18.01;66.93;95415.59;4372545;32;20255;-64
2023/06/17 05:48:40;;;;;;;0.87;0.87;;;;;;;17.88;65.22;95422.84;4360279;32;20236;-64
2023/06/17 05:51:10;;;;;;;6.57;2.40;;;;;;;18.03;66.73;95422.19;4336056;32;20188;-63
2023/06/17 05:53:41;;;;;;;1.67;1.57;;;;;;;17.92;66.93;95423.75;4316587;32;20197;-65
2023/06/17 05:56:09;;;;;;;1.20;1.20;;;;;;;18.03;66.03;95419.50;4356653;32;20251;-64
2023/06/17 05:58:36;;;;;;;1.73;1.60;;;;;;;18.11;65.50;95415.13;4362767;32;20230;-64
2023/06/17 06:01:04;;;;;;;1.80;1.33;;;;;;;18.27;66.46;95426.75;4380593;32;20197;-64
2023/06/17 06:03:29;;;;;;;1.00;1.00;;;;;;;18.25;66.74;95426.28;4331344;32;20253;-64
2023/06/17 06:05:55;;;;;;;9.10;2.37;;;;;;;18.25;65.05;95420.13;4382217;32;20261;-63
2023/06/17 06:08:22;;;;;;;1.40;1.30;;;;;;;18.37;66.49;95430.84;4382460;32;20192;-63
2023/06/17 06:10:48;;;;;;;1.90;1.80;;;;;;;18.25;64.27;95423.59;4390173;32;20181;-63
2023/06/17 06:13:14;;;;;;;0.77;0.77;;;;;;;18.49;65.11;95420.87;4368156;32;20208;-63
2023/06/17 06:15:41;;;;;;;2.07;1.23;;;;;;;18.41;64.40;95419.09;4375138;32;20185;-64
2023/06/17 06:18:09;;;;;;;1.50;1.47;;;;;;;18.54;64.36;95428.66;4363019;32;20193;-63
2023/06/17 06:20:37;;;;;;;1.80;1.70;;;;;;;18.69;62.25;95426.41;4384826;32;20257;-63
2023/06/17 06:23:04;;;;;;;2.23;2.10;;;;;;;18.77;62.88;95426.25;4355763;32;20250;-63
2023/06/17 06:25:31;;;;;;;2.03;1.93;;;;;;;18.92;63.35;95429.31;4363884;32;20201;-63
2023/06/17 06:27:58;;;;;;;2.30;2.20;;;;;;;18.87;63.50;95435.75;4383551;32;20195;-63
2023/06/17 06:30:29;;;;;;;1.60;1.60;;;;;;;19.02;61.95;95432.31;4392199;32;20234;-63
2023/06/17 06:32:54;;;;;;;1.53;0.73;;;;;;;18.98;62.90;95428.72;4367631;32;20187;-63
2023/06/17 06:35:23;;;;;;;4.30;1.80;;;;;;;19.15;62.88;95435.69;4373013;32;20307;-63
2023/06/17 06:37:51;;;;;;;1.53;1.53;;;;;;;19.21;62.16;95439.72;4391989;32;20204;-63
2023/06/17 06:40:25;;;;;;;2.70;1.70;;;;;;;19.35;62.74;95437.38;4390225;32;20211;-63
2023/06/17 06:42:51;;;;;;;4.43;1.53;;;;;;;19.55;60.62;95440.97;4366678;32;20252;-63
2023/06/17 06:45:19;;;;;;;1.13;1.13;;;;;;;19.57;58.85;95446.78;4360841;32;20244;-63
2023/06/17 06:47:45;;;;;;;1.70;1.60;;;;;;;19.72;58.90;95443.34;4365277;32;20192;-63
2023/06/17 06:50:11;;;;;;;1.20;1.20;;;;;;;19.84;58.32;95445.13;4388406;32;20206;-63
2023/06/17 06:52:37;;;;;;;3.30;1.10;;;;;;;19.78;58.66;95441.94;4369657;32;20289;-62
2023/06/17 06:55:05;;;;;;;3.27;1.90;;;;;;;19.87;57.71;95442.53;4396084;32;20208;-63
2023/06/17 06:57:31;;;;;;;2.00;1.60;;;;;;;20.01;57.59;95443.97;4345300;32;20276;-63
2023/06/17 06:59:57;;;;;;;1.53;1.50;;;;;;;20.17;56.91;95444.72;4388791;32;20207;-62
2023/06/17 07:02:23;;;;;;;0.90;0.90;;;;;;;20.15;56.90;95438.94;4352059;32;20240;-62
2023/06/17 07:04:50;;;;;;;0.97;0.97;;;;;;;20.49;55.47;95442.78;4403209;32;20223;-63
2023/06/17 07:07:17;;;;;;;2.53;1.10;;;;;;;20.64;55.51;95449.22;4377032;32;20197;-62
2023/06/17 07:09:43;;;;;;;1.07;1.00;;;;;;;20.76;55.30;95447.19;4362596;32;20237;-63
2023/06/17 07:12:11;;;;;;;0.67;0.67;;;;;;;20.90;54.69;95452.84;4394206;32;20188;-63
2023/06/17 07:14:37;;;;;;;1.27;1.20;;;;;;;20.88;54.23;95451.66;4386396;32;20193;-62
2023/06/17 07:17:03;;;;;;;1.27;1.13;;;;;;;20.86;54.46;95456.63;4368329;32;20236;-62
2023/06/17 07:19:31;;;;;;;1.43;1.33;;;;;;;20.87;54.91;95452.78;4368561;32;20199;-62
2023/06/17 07:21:56;;;;;;;1.17;1.17;;;;;;;20.93;54.81;95454.06;4377504;32;20252;-62
2023/06/17 07:24:23;;;;;;;1.97;1.17;;;;;;;20.90;54.33;95458.25;4365314;32;20215;-62
2023/06/17 07:26:48;;;;;;;3.30;1.57;;;;;;;20.88;53.18;95459.75;4362233;32;20240;-62
2023/06/17 07:29:13;;;;;;;0.80;0.80;;;;;;;20.78;52.87;95454.94;4393645;32;20269;-62
2023/06/17 07:31:40;;;;;;;1.33;1.33;;;;;;;20.85;53.05;95455.06;4383039;32;20230;-62
2023/06/17 07:34:14;;;;;;;0.70;0.70;;;;;;;20.82;52.28;95453.06;4387504;32;20206;-62
2023/06/17 07:36:41;;;;;;;0.70;0.70;;;;;;;20.93;52.25;95451.37;4386312;32;20207;-62
2023/06/17 07:39:08;;;;;;;1.50;1.40;;;;;;;21.01;52.48;95447.66;4390470;32;20193;-62
2023/06/17 07:41:36;;;;;;;1.07;1.07;;;;;;;21.08;50.84;95453.19;4386530;32;20208;-62
2023/06/17 07:44:03;;;;;;;1.77;1.67;;;;;;;21.08;51.24;95455.12;4369932;32;20217;-62
2023/06/17 07:46:32;;;;;;;1.07;1.07;;;;;;;21.07;51.06;95456.25;4364922;32;20295;-62
2023/06/17 07:48:58;;;;;;;1.93;1.83;;;;;;;20.95;51.56;95449.09;4392749;32;20264;-62
2023/06/17 07:51:23;;;;;;;1.43;1.37;;;;;;;21.10;51.84;95450.91;4348003;32;20193;-62
2023/06/17 07:53:50;;;;;;;0.80;0.80;;;;;;;21.16;51.85;95444.09;4381398;32;20195;-62
2023/06/17 07:56:18;;;;;;;1.10;1.10;;;;;;;21.24;50.59;95443.09;4396375;32;20180;-62
2023/06/17 07:58:49;;;;;;;0.93;0.93;;;;;;;21.31;47.76;95445.16;4389211;32;20251;-62
2023/06/17 08:01:22;;;;;;;1.13;1.13;;;;;;;21.41;47.83;95443.78;4380753;32;20214;-64
2023/06/17 08:03:48;;;;;;;12.33;1.50;;;;;;;21.42;47.74;95445.34;4389447;32;20198;-62
2023/06/17 08:06:13;;;;;;;1.20;1.07;;;;;;;21.43;47.33;95439.59;4354322;32;20188;-62
2023/06/17 08:08:40;;;;;;;1.57;1.57;;;;;;;21.34;45.82;95444.44;4373953;32;20184;-63
2023/06/17 08:11:06;;;;;;;0.73;0.73;;;;;;;21.35;46.88;95440.63;4334656;32;20196;-62
2023/06/17 08:13:31;;;;;;;1.87;0.80;;;;;;;21.37;46.81;95440.25;4373086;32;20240;-62
2023/06/17 08:15:56;;;;;;;0.53;0.53;;;;;;;21.37;47.16;95432.16;4391796;32;20206;-62
2023/06/17 08:18:23;;;;;;;0.67;0.67;;;;;;;21.44;45.47;95429.56;4385577;32;20202;-62
2023/06/17 08:20:55;;;;;;;1.23;1.07;;;;;;;;;;4392977;32;20238;-62
2023/06/17 08:23:20;;;;;;;1.23;1.20;;;;;;;21.44;44.37;95434.97;4378905;32;20192;-62
2023/06/17 08:25:56;;;;;;;0.50;0.50;;;;;;;21.53;43.10;95430.91;4402848;32;20212;-62
2023/06/17 08:28:23;;;;;;;0.97;0.97;;;;;;;21.59;44.57;95434.09;4370964;32;20252;-62
2023/06/17 08:30:49;;;;;;;1.00;1.00;;;;;;;21.57;42.60;95430.97;4332893;32;20216;-62
2023/06/17 08:33:26;;;;;;;1.53;1.43;;;;;;;21.66;42.50;95428.00;4327323;32;20212;-62
2023/06/17 08:35:52;;;;;;;1.53;1.43;;;;;;;21.61;43.32;95423.72;4345953;32;20185;-62
2023/06/17 08:38:18;;;;;;;3.03;1.77;;;;;;;21.59;44.82;95415.19;4353505;32;20193;-62
2023/06/17 08:40:49;;;;;;;0.83;0.83;;;;;;;21.65;43.65;95421.03;4326237;32;20193;-62
2023/06/17 08:43:23;;;;;;;0.60;0.60;;;;;;;21.73;43.90;95418.09;4344489;32;20195;-62
2023/06/17 08:45:50;;;;;;;1.30;1.30;;;;;;;21.74;43.80;95418.88;4344494;32;20225;-62
2023/06/17 08:48:19;;;;;;;0.83;0.83;;;;;;;21.77;43.71;95418.94;4346462;32;20189;-62
2023/06/17 08:50:47;;;;;;;0.70;0.70;;;;;;;21.82;42.02;95420.56;4348530;32;20185;-62
2023/06/17 08:53:14;;;;;;;1.27;1.27;;;;;;;21.85;42.37;95409.78;4348706;32;20223;-62
2023/06/17 08:55:45;;;;;;;1.40;1.13;;;;;;;21.87;41.84;95412.91;4349969;32;20247;-62
2023/06/17 08:58:12;;;;;;;1.27;1.23;;;;;;;21.88;41.98;95409.06;4333854;32;20193;-62
2023/06/17 09:00:37;;;;;;;1.07;1.07;;;;;;;21.92;42.62;95414.53;4343490;32;20181;-62
2023/06/17 09:03:06;;;;;;;1.23;1.23;;;;;;;22.00;42.52;95399.22;4348816;32;20263;-62
2023/06/17 09:05:35;;;;;;;1.37;1.37;;;;;;;21.92;43.28;95404.50;4350275;32;20198;-62
2023/06/17 09:08:03;;;;;;;0.83;0.83;;;;;;;21.92;43.32;95415.31;4335424;32;20204;-62
2023/06/17 09:10:40;;;;;;;0.70;0.70;;;;;;;21.94;42.29;95409.53;4170645;32;20178;-62
2023/06/17 09:13:25;;;;;;;0.80;0.80;;;;;;;21.97;41.80;95394.53;4325175;32;20248;-62
2023/06/17 09:15:59;;;;;;;7.87;1.33;;;;;;;22.19;41.03;95407.22;4316978;32;20181;-62
2023/06/17 09:18:26;;;;;;;1.90;1.80;;;;;;;22.05;40.25;95409.72;4321339;32;20189;-62
2023/06/17 09:21:06;;;;;;;1.33;1.33;;;;;;;21.96;41.66;95404.56;4311361;32;20189;-62
2023/06/17 09:23:35;;;;;;;1.17;1.07;;;;;;;21.95;40.03;95400.28;4245210;32;20447;-62
2023/06/17 09:26:04;;;;;;;1.60;1.50;;;;;;;22.03;39.06;95401.22;4332644;32;20189;-62
2023/06/17 09:28:32;;;;;;;1.73;1.63;;;;;;;22.15;38.71;95395.59;4323837;32;20221;-62
2023/06/17 09:31:09;;;;;;;0.93;0.93;;;;;;;22.18;38.74;95392.16;4352077;32;20192;-62
2023/06/17 09:33:36;;;;;;;0.50;0.50;;;;;;;22.39;38.07;95392.44;4372182;32;20195;-62
2023/06/17 09:36:08;;;;;;;1.40;1.40;;;;;;;22.43;38.32;95401.38;4364505;32;20189;-62
2023/06/17 09:38:39;;;;;;;1.33;1.33;;;;;;;22.38;38.76;95393.59;4362430;32;20184;-62
2023/06/17 09:41:14;;;;;;;1.20;1.20;;;;;;;22.28;40.23;95394.22;4377090;32;20184;-62
2023/06/17 09:43:52;;;;;;;1.00;1.00;;;;;;;22.14;40.38;95400.22;4321220;32;20212;-63
2023/06/17 09:46:35;;;;;;;0.93;0.93;;;;;;;22.04;38.78;95390.03;4386294;32;20207;-62
2023/06/17 09:49:12;;;;;;;1.03;1.03;;;;;;;22.10;36.94;95385.09;4316756;32;20188;-62
2023/06/17 09:51:39;;;;;;;1.57;1.47;;;;;;;22.10;36.45;95388.56;4322111;32;20201;-62
2023/06/17 09:54:15;;;;;;;1.33;1.33;;;;;;;22.06;37.65;95392.34;4368777;32;20232;-62
2023/06/17 09:56:46;;;;;;;1.37;1.30;;;;;;;22.22;38.40;95379.47;4335398;32;20233;-63
2023/06/17 09:59:21;;;;;;;1.33;1.30;;;;;;;22.26;39.76;95386.47;4319698;32;20208;-62
2023/06/17 10:01:59;;;;;;;1.40;1.30;;;;;;;22.38;39.40;95382.78;4326797;32;20192;-62
2023/06/17 10:04:25;;;;;;;0.90;0.90;;;;;;;22.41;39.80;95390.16;4376110;32;20207;-62
2023/06/17 10:07:00;;;;;;;0.93;0.93;;;;;;;22.58;38.45;95381.47;4348918;32;20227;-62
2023/06/17 10:09:26;;;;;;;0.90;0.90;;;;;;;22.68;38.18;95373.84;4351603;32;20352;-62
2023/06/17 10:11:54;;;;;;;2.00;0.83;;;;;;;22.60;38.66;95373.00;4340034;32;20193;-62
2023/06/17 10:14:36;;;;;;;1.27;1.23;;;;;;;22.59;38.24;95383.03;4370777;32;20220;-62
2023/06/17 10:17:23;;;;;;;1.20;1.20;;;;;;;22.67;39.15;95388.50;4375050;32;20267;-62
2023/06/17 10:19:55;;;;;;;1.00;1.00;;;;;;;22.83;38.05;95381.78;4374410;32;20246;-62
2023/06/17 10:22:41;;;;;;;3.20;1.30;;;;;;;22.92;38.07;95373.38;4312295;32;20199;-62
2023/06/17 10:25:10;;;;;;;0.90;0.90;;;;;;;23.05;37.82;95374.69;4375919;32;20192;-62
2023/06/17 10:27:37;;;;;;;1.13;1.13;;;;;;;23.15;37.01;95365.88;4362462;32;20187;-62
2023/06/17 10:30:24;;;;;;;1.17;1.17;;;;;;;23.33;37.08;95365.25;4371092;32;20284;-62
2023/06/17 10:33:08;;;;;;;1.20;1.20;;;;;;;23.42;35.95;95354.88;4345876;32;20241;-62
2023/06/17 10:35:50;;;;;;;0.80;0.80;;;;;;;23.47;36.13;95360.75;4357702;32;20194;-62
2023/06/17 10:38:52;;;;;;;2.33;1.07;;;;;;;23.49;36.50;95368.47;4379455;32;20232;-62
2023/06/17 10:41:19;;;;;;;2.67;0.90;;;;;;;23.44;37.01;95369.63;4374216;32;20201;-62
2023/06/17 10:43:50;;;;;;;1.17;1.17;;;;;;;23.49;36.61;95366.53;4334918;32;20212;-62
2023/06/17 10:46:25;;;;;;;0.97;0.97;;;;;;;23.48;36.26;95361.53;4362253;32;20188;-62
2023/06/17 10:49:27;;;;;;;1.53;1.43;;;;;;;23.38;36.71;95351.37;4354262;32;20331;-62
2023/06/17 10:51:59;;;;;;;0.90;0.90;;;;;;;23.29;37.33;95341.63;4359152;32;20200;-62
2023/06/17 10:54:39;;;;;;;1.70;1.60;;;;;;;23.10;38.09;95349.97;4306958;32;20227;-62
2023/06/17 10:57:08;;;;;;;1.10;1.10;;;;;;;23.19;36.97;95344.25;4315205;32;20189;-62
2023/06/17 10:59:41;;;;;;;1.57;1.47;;;;;;;23.31;36.43;95344.72;4311678;32;20181;-63
2023/06/17 11:02:08;;;;;;;0.97;0.97;;;;;;;23.46;36.78;95347.56;4322639;32;20220;-62
2023/06/17 11:04:42;;;;;;;2.07;1.87;;;;;;;23.50;37.04;95351.06;4321359;32;20192;-62
2023/06/17 11:07:09;;;;;;;1.13;1.13;;;;;;;23.52;37.30;95341.44;4357461;32;20187;-62
2023/06/17 11:09:36;;;;;;;0.67;0.67;;;;;;;23.56;35.74;95336.06;4320007;32;20181;-62
2023/06/17 11:12:07;;;;;;;1.40;1.40;;;;;;;23.63;35.52;95346.97;4302608;32;20181;-62
2023/06/17 11:14:59;;;;;;;0.93;0.93;;;;;;;23.58;35.70;95333.75;4358756;32;20198;-62
2023/06/17 11:17:26;;;;;;;1.33;1.30;;;;;;;23.55;35.74;95324.44;4289881;32;20252;-62
2023/06/17 11:20:09;;;;;;;1.10;1.10;;;;;;;23.67;36.15;95323.38;4335910;32;20184;-62
2023/06/17 11:22:40;;;;;;;0.77;0.77;;;;;;;23.76;36.36;95329.22;4328110;32;20233;-62
2023/06/17 11:25:09;;;;;;;1.20;1.20;;;;;;;23.69;36.18;95329.22;4296096;32;20192;-62
2023/06/17 11:27:40;;;;;;;1.13;1.03;;;;;;;23.83;34.08;95318.44;4331372;32;20176;-62
2023/06/17 11:30:33;;;;;;;1.90;1.77;;;;;;;23.74;34.13;95318.00;4344717;32;20205;-62
2023/06/17 11:32:59;;;;;;;2.17;1.50;;;;;;;23.82;36.29;95302.56;4347073;32;20299;-62
2023/06/17 11:35:29;;;;;;;0.93;0.93;;;;;;;23.82;35.03;95325.03;4366473;32;20207;-62
2023/06/17 11:38:16;;;;;;;1.00;0.93;;;;;;;23.55;35.85;95321.75;4314322;32;20207;-62
2023/06/17 11:41:06;;;;;;;1.03;1.03;;;;;;;23.48;35.44;95320.91;4343043;32;20215;-62
2023/06/17 11:43:35;;;;;;;1.63;1.53;;;;;;;23.60;35.46;95315.19;4306943;32;20186;-62
2023/06/17 11:46:08;;;;;;;0.90;0.83;;;;;;;23.55;35.17;95310.91;4325896;32;20226;-63
2023/06/17 11:48:35;;;;;;;2.03;1.93;;;;;;;23.57;35.37;95305.09;4286155;32;20260;-62
2023/06/17 11:51:15;;;;;;;4.47;1.90;;;;;;;23.64;36.23;95313.28;4332888;32;20196;-62